AAL1362 KLAX-KPHX
Flight info
| Callsign | AAL1362 |
|---|---|
| Flight time | 0h 55m |
| Altitude | 33000 |
| Route | DOTSS2 CNERY BLH HYDRR1 |
| Aircraft | B738/M-SDE2E3FGHIRWXY/LB1 |
Departure
| Time | 2026-04-26 04:03 |
|---|---|
| Airport | Los Angeles International Airport (KLAX) |
Arrival
| Time | 2026-04-26 04:58 |
|---|---|
| Airport | Phoenix Sky Harbor International Airport (KPHX) |
| Time | Latitude | Longitude | Altitude | Speed | Heading |
|---|---|---|---|---|---|
| 2026-04-26 03:28 | 33.93950 | -118.40720 | 132 ft | 0 kts | 33° |
| 2026-04-26 03:43 | 33.93942 | -118.40726 | 132 ft | 2 kts | 33° |
| 2026-04-26 03:43 | 33.93929 | -118.40736 | 132 ft | 2 kts | 33° |
| 2026-04-26 03:43 | 33.93916 | -118.40745 | 132 ft | 2 kts | 33° |
| 2026-04-26 03:44 | 33.93904 | -118.40755 | 132 ft | 2 kts | 33° |
| 2026-04-26 03:44 | 33.93891 | -118.40765 | 133 ft | 2 kts | 33° |
| 2026-04-26 03:44 | 33.93881 | -118.40778 | 133 ft | 1 kts | 73° |
| 2026-04-26 03:44 | 33.93880 | -118.40785 | 134 ft | 1 kts | 87° |
| 2026-04-26 03:45 | 33.93880 | -118.40790 | 134 ft | 0 kts | 83° |
| 2026-04-26 03:47 | 33.93880 | -118.40784 | 134 ft | 2 kts | 94° |
| 2026-04-26 03:47 | 33.93842 | -118.40743 | 135 ft | 10 kts | 144° |
| 2026-04-26 03:47 | 33.93811 | -118.40655 | 134 ft | 14 kts | 85° |
| 2026-04-26 03:48 | 33.93827 | -118.40498 | 131 ft | 22 kts | 83° |
| 2026-04-26 03:48 | 33.93840 | -118.40372 | 127 ft | 10 kts | 82° |
| 2026-04-26 03:48 | 33.93851 | -118.40272 | 125 ft | 15 kts | 83° |
| 2026-04-26 03:48 | 33.93864 | -118.40137 | 123 ft | 16 kts | 83° |
| 2026-04-26 03:49 | 33.93879 | -118.39996 | 121 ft | 16 kts | 83° |
| 2026-04-26 03:49 | 33.93892 | -118.39861 | 119 ft | 17 kts | 83° |
| 2026-04-26 03:49 | 33.93909 | -118.39708 | 118 ft | 15 kts | 83° |
| 2026-04-26 03:49 | 33.93922 | -118.39572 | 114 ft | 18 kts | 83° |
| 2026-04-26 03:50 | 33.93938 | -118.39420 | 112 ft | 18 kts | 84° |
| 2026-04-26 03:50 | 33.93959 | -118.39271 | 110 ft | 18 kts | 66° |
| 2026-04-26 03:50 | 33.94068 | -118.39224 | 110 ft | 13 kts | 14° |
| 2026-04-26 03:50 | 33.94088 | -118.39191 | 109 ft | 0 kts | 119° |
| 2026-04-26 03:58 | 33.94087 | -118.39188 | 109 ft | 2 kts | 118° |
| 2026-04-26 03:59 | 33.94071 | -118.39123 | 109 ft | 12 kts | 102° |
| 2026-04-26 03:59 | 33.94025 | -118.39029 | 108 ft | 13 kts | 133° |
| 2026-04-26 03:59 | 33.93990 | -118.38914 | 108 ft | 16 kts | 85° |
| 2026-04-26 03:59 | 33.94005 | -118.38759 | 107 ft | 21 kts | 83° |
| 2026-04-26 04:00 | 33.94024 | -118.38578 | 105 ft | 21 kts | 83° |
| 2026-04-26 04:00 | 33.94042 | -118.38399 | 104 ft | 21 kts | 83° |
| 2026-04-26 04:00 | 33.94059 | -118.38228 | 103 ft | 20 kts | 83° |
| 2026-04-26 04:00 | 33.94073 | -118.38099 | 102 ft | 10 kts | 83° |
| 2026-04-26 04:01 | 33.94070 | -118.38024 | 102 ft | 7 kts | 124° |
| 2026-04-26 04:01 | 33.94026 | -118.38003 | 102 ft | 7 kts | 175° |
| 2026-04-26 04:01 | 33.93980 | -118.38045 | 102 ft | 12 kts | 265° |
| 2026-04-26 04:01 | 33.93975 | -118.38098 | 102 ft | 2 kts | 263° |
| 2026-04-26 04:02 | 33.93975 | -118.38103 | 102 ft | 1 kts | 263° |
| 2026-04-26 04:02 | 33.93958 | -118.38273 | 103 ft | 53 kts | 263° |
| 2026-04-26 04:02 | 33.93887 | -118.38969 | 109 ft | 113 kts | 263° |
| 2026-04-26 04:02 | 33.93767 | -118.40140 | 142 ft | 161 kts | 262° |
| 2026-04-26 04:03 | 33.93630 | -118.41470 | 722 ft | 163 kts | 263° |
| 2026-04-26 04:03 | 33.93509 | -118.42869 | 1205 ft | 176 kts | 264° |
| 2026-04-26 04:03 | 33.93374 | -118.44376 | 1701 ft | 188 kts | 264° |
| 2026-04-26 04:03 | 33.93127 | -118.45964 | 2039 ft | 204 kts | 250° |
| 2026-04-26 04:04 | 33.92321 | -118.47446 | 2418 ft | 220 kts | 226° |
| 2026-04-26 04:04 | 33.90950 | -118.48411 | 2793 ft | 240 kts | 197° |
| 2026-04-26 04:04 | 33.89269 | -118.48727 | 3206 ft | 255 kts | 188° |
| 2026-04-26 04:04 | 33.87460 | -118.48942 | 3792 ft | 262 kts | 189° |
| 2026-04-26 04:05 | 33.85668 | -118.49206 | 4492 ft | 263 kts | 191° |
| 2026-04-26 04:05 | 33.83848 | -118.49523 | 5210 ft | 264 kts | 192° |
| 2026-04-26 04:05 | 33.82048 | -118.49854 | 5899 ft | 265 kts | 193° |
| 2026-04-26 04:05 | 33.80217 | -118.50193 | 6611 ft | 266 kts | 193° |
| 2026-04-26 04:06 | 33.78392 | -118.50529 | 7269 ft | 270 kts | 193° |
| 2026-04-26 04:06 | 33.76528 | -118.50869 | 7968 ft | 272 kts | 193° |
| 2026-04-26 04:06 | 33.74629 | -118.51170 | 8644 ft | 277 kts | 189° |
| 2026-04-26 04:06 | 33.72702 | -118.51040 | 9334 ft | 287 kts | 172° |
| 2026-04-26 04:07 | 33.70831 | -118.50082 | 10008 ft | 299 kts | 151° |
| 2026-04-26 04:07 | 33.69224 | -118.48457 | 10508 ft | 315 kts | 137° |
| 2026-04-26 04:07 | 33.67910 | -118.46249 | 10854 ft | 336 kts | 120° |
| 2026-04-26 04:07 | 33.67007 | -118.43611 | 11211 ft | 354 kts | 112° |
| 2026-04-26 04:08 | 33.66200 | -118.40755 | 11551 ft | 370 kts | 111° |
| 2026-04-26 04:08 | 33.65382 | -118.37760 | 11913 ft | 385 kts | 111° |
| 2026-04-26 04:08 | 33.64651 | -118.34596 | 12391 ft | 397 kts | 103° |
| 2026-04-26 04:08 | 33.64343 | -118.31309 | 13027 ft | 404 kts | 95° |
| 2026-04-26 04:09 | 33.64267 | -118.27934 | 13681 ft | 410 kts | 92° |
| 2026-04-26 04:09 | 33.64291 | -118.24475 | 14353 ft | 416 kts | 90° |
| 2026-04-26 04:09 | 33.64336 | -118.21023 | 15005 ft | 421 kts | 91° |
| 2026-04-26 04:09 | 33.64387 | -118.17499 | 15646 ft | 427 kts | 90° |
| 2026-04-26 04:10 | 33.64440 | -118.13902 | 16343 ft | 430 kts | 91° |
| 2026-04-26 04:10 | 33.64471 | -118.10322 | 16971 ft | 436 kts | 91° |
| 2026-04-26 04:10 | 33.64479 | -118.06690 | 17605 ft | 440 kts | 92° |
| 2026-04-26 04:10 | 33.64476 | -118.03024 | 18256 ft | 444 kts | 92° |
| 2026-04-26 04:11 | 33.64467 | -117.99281 | 18825 ft | 449 kts | 92° |
| 2026-04-26 04:11 | 33.64456 | -117.95528 | 19438 ft | 453 kts | 93° |
| 2026-04-26 04:11 | 33.64444 | -117.91760 | 19974 ft | 459 kts | 93° |
| 2026-04-26 04:11 | 33.64432 | -117.87901 | 20568 ft | 462 kts | 93° |
| 2026-04-26 04:12 | 33.64388 | -117.84056 | 21034 ft | 467 kts | 95° |
| 2026-04-26 04:12 | 33.64172 | -117.80161 | 21594 ft | 468 kts | 101° |
| 2026-04-26 04:12 | 33.63653 | -117.76356 | 22070 ft | 469 kts | 107° |
| 2026-04-26 04:12 | 33.62889 | -117.72568 | 22601 ft | 470 kts | 111° |
| 2026-04-26 04:13 | 33.61978 | -117.68734 | 23058 ft | 474 kts | 112° |
| 2026-04-26 04:13 | 33.61023 | -117.64977 | 23529 ft | 478 kts | 114° |
| 2026-04-26 04:13 | 33.60032 | -117.61155 | 24133 ft | 478 kts | 114° |
| 2026-04-26 04:13 | 33.59048 | -117.57368 | 24522 ft | 484 kts | 114° |
| 2026-04-26 04:14 | 33.58049 | -117.53500 | 24936 ft | 489 kts | 114° |
| 2026-04-26 04:14 | 33.57043 | -117.49579 | 25415 ft | 492 kts | 114° |
| 2026-04-26 04:14 | 33.56049 | -117.45669 | 25761 ft | 498 kts | 113° |
| 2026-04-26 04:14 | 33.55039 | -117.41670 | 26344 ft | 498 kts | 113° |
| 2026-04-26 04:15 | 33.54057 | -117.37743 | 27055 ft | 495 kts | 113° |
| 2026-04-26 04:15 | 33.53080 | -117.33820 | 27606 ft | 494 kts | 114° |
| 2026-04-26 04:15 | 33.52095 | -117.29851 | 28077 ft | 496 kts | 114° |
| 2026-04-26 04:15 | 33.51249 | -117.25867 | 28562 ft | 500 kts | 110° |
| 2026-04-26 04:16 | 33.50647 | -117.21729 | 29075 ft | 504 kts | 104° |
| 2026-04-26 04:16 | 33.50308 | -117.17563 | 29460 ft | 510 kts | 100° |
| 2026-04-26 04:16 | 33.50138 | -117.13303 | 29900 ft | 512 kts | 98° |
| 2026-04-26 04:16 | 33.50068 | -117.09074 | 30255 ft | 514 kts | 97° |
| 2026-04-26 04:17 | 33.50045 | -117.04772 | 30584 ft | 517 kts | 96° |
| 2026-04-26 04:17 | 33.50036 | -117.00472 | 31029 ft | 515 kts | 96° |
| 2026-04-26 04:17 | 33.50024 | -116.96195 | 31445 ft | 513 kts | 96° |
| 2026-04-26 04:17 | 33.50001 | -116.91949 | 31838 ft | 513 kts | 97° |
| 2026-04-26 04:18 | 33.49961 | -116.87653 | 32116 ft | 515 kts | 96° |
| 2026-04-26 04:18 | 33.49908 | -116.83395 | 32424 ft | 516 kts | 97° |
| 2026-04-26 04:18 | 33.49851 | -116.79121 | 32822 ft | 514 kts | 97° |
| 2026-04-26 04:19 | 33.49718 | -116.70494 | 32891 ft | 515 kts | 97° |
| 2026-04-26 04:19 | 33.49578 | -116.61948 | 32920 ft | 510 kts | 98° |
| 2026-04-26 04:20 | 33.49421 | -116.53391 | 32904 ft | 508 kts | 97° |
| 2026-04-26 04:20 | 33.49258 | -116.44889 | 32890 ft | 510 kts | 98° |
| 2026-04-26 04:21 | 33.49107 | -116.36388 | 32871 ft | 512 kts | 97° |
| 2026-04-26 04:21 | 33.48976 | -116.27928 | 32863 ft | 510 kts | 98° |
| 2026-04-26 04:22 | 33.48859 | -116.19417 | 32885 ft | 506 kts | 98° |
| 2026-04-26 04:22 | 33.48733 | -116.10986 | 32866 ft | 507 kts | 98° |
| 2026-04-26 04:23 | 33.49139 | -116.02470 | 32844 ft | 522 kts | 84° |
| 2026-04-26 04:23 | 33.51041 | -115.93982 | 32824 ft | 525 kts | 74° |
| 2026-04-26 04:24 | 33.53514 | -115.85757 | 32820 ft | 526 kts | 73° |
| 2026-04-26 04:24 | 33.56067 | -115.77528 | 32821 ft | 528 kts | 72° |
| 2026-04-26 04:25 | 33.58593 | -115.69191 | 32823 ft | 526 kts | 73° |
| 2026-04-26 04:25 | 33.60728 | -115.60870 | 32827 ft | 522 kts | 82° |
| 2026-04-26 04:26 | 33.61603 | -115.52259 | 32826 ft | 517 kts | 94° |
| 2026-04-26 04:26 | 33.61599 | -115.43689 | 32809 ft | 510 kts | 99° |
| 2026-04-26 04:27 | 33.61350 | -115.35231 | 32804 ft | 510 kts | 99° |
| 2026-04-26 04:27 | 33.61062 | -115.26675 | 32808 ft | 511 kts | 100° |
| 2026-04-26 04:28 | 33.60800 | -115.18194 | 32793 ft | 510 kts | 100° |
| 2026-04-26 04:28 | 33.60562 | -115.09705 | 32795 ft | 507 kts | 99° |
| 2026-04-26 04:29 | 33.60326 | -115.01277 | 32790 ft | 511 kts | 99° |
| 2026-04-26 04:29 | 33.60084 | -114.92727 | 32788 ft | 513 kts | 100° |
| 2026-04-26 04:30 | 33.59844 | -114.84219 | 32785 ft | 510 kts | 99° |
| 2026-04-26 04:30 | 33.59338 | -114.75800 | 32781 ft | 502 kts | 106° |
| 2026-04-26 04:31 | 33.58096 | -114.67635 | 32786 ft | 498 kts | 112° |
| 2026-04-26 04:31 | 33.56504 | -114.59505 | 32783 ft | 496 kts | 113° |
| 2026-04-26 04:32 | 33.54881 | -114.51478 | 31903 ft | 499 kts | 112° |
| 2026-04-26 04:32 | 33.54053 | -114.47418 | 30955 ft | 508 kts | 112° |
| 2026-04-26 04:32 | 33.53218 | -114.43295 | 30263 ft | 509 kts | 112° |
| 2026-04-26 04:32 | 33.52406 | -114.39233 | 29656 ft | 507 kts | 112° |
| 2026-04-26 04:33 | 33.51594 | -114.35131 | 29109 ft | 504 kts | 111° |
| 2026-04-26 04:33 | 33.50792 | -114.31081 | 28320 ft | 504 kts | 112° |
| 2026-04-26 04:33 | 33.49980 | -114.26969 | 27486 ft | 506 kts | 111° |
| 2026-04-26 04:33 | 33.49165 | -114.22863 | 26726 ft | 505 kts | 111° |
| 2026-04-26 04:34 | 33.48361 | -114.18795 | 25978 ft | 504 kts | 111° |
| 2026-04-26 04:34 | 33.47551 | -114.14705 | 25181 ft | 504 kts | 111° |
| 2026-04-26 04:34 | 33.46753 | -114.10667 | 24825 ft | 493 kts | 111° |
| 2026-04-26 04:34 | 33.45993 | -114.06795 | 24816 ft | 479 kts | 111° |
| 2026-04-26 04:35 | 33.45232 | -114.02929 | 24853 ft | 467 kts | 111° |
| 2026-04-26 04:35 | 33.44510 | -113.99261 | 24836 ft | 449 kts | 112° |
| 2026-04-26 04:35 | 33.43807 | -113.95694 | 24827 ft | 433 kts | 112° |
| 2026-04-26 04:35 | 33.43120 | -113.92235 | 24829 ft | 421 kts | 112° |
| 2026-04-26 04:36 | 33.42437 | -113.88839 | 24828 ft | 420 kts | 112° |
| 2026-04-26 04:36 | 33.41739 | -113.85435 | 24828 ft | 426 kts | 113° |
| 2026-04-26 04:36 | 33.41031 | -113.81996 | 24826 ft | 428 kts | 112° |
| 2026-04-26 04:36 | 33.40328 | -113.78556 | 24825 ft | 428 kts | 112° |
| 2026-04-26 04:37 | 33.39625 | -113.75108 | 24831 ft | 427 kts | 112° |
| 2026-04-26 04:37 | 33.38928 | -113.71668 | 24828 ft | 425 kts | 112° |
| 2026-04-26 04:37 | 33.38231 | -113.68238 | 24818 ft | 426 kts | 112° |
| 2026-04-26 04:37 | 33.37532 | -113.64807 | 24544 ft | 424 kts | 112° |
| 2026-04-26 04:38 | 33.36839 | -113.61394 | 23973 ft | 424 kts | 112° |
| 2026-04-26 04:38 | 33.36142 | -113.57970 | 23467 ft | 422 kts | 112° |
| 2026-04-26 04:38 | 33.35451 | -113.54575 | 22997 ft | 420 kts | 111° |
| 2026-04-26 04:38 | 33.34764 | -113.51193 | 22531 ft | 418 kts | 111° |
| 2026-04-26 04:39 | 33.34088 | -113.47877 | 22056 ft | 417 kts | 111° |
| 2026-04-26 04:39 | 33.33418 | -113.44545 | 21837 ft | 407 kts | 110° |
| 2026-04-26 04:39 | 33.32817 | -113.41246 | 21823 ft | 397 kts | 110° |
| 2026-04-26 04:39 | 33.32273 | -113.38052 | 21823 ft | 400 kts | 109° |
| 2026-04-26 04:40 | 33.31709 | -113.34739 | 21823 ft | 407 kts | 109° |
| 2026-04-26 04:40 | 33.31150 | -113.31449 | 21785 ft | 408 kts | 109° |
| 2026-04-26 04:40 | 33.30584 | -113.28120 | 21551 ft | 408 kts | 109° |
| 2026-04-26 04:40 | 33.30022 | -113.24818 | 21275 ft | 401 kts | 109° |
| 2026-04-26 04:41 | 33.29476 | -113.21566 | 20867 ft | 398 kts | 108° |
| 2026-04-26 04:41 | 33.28982 | -113.18362 | 20410 ft | 397 kts | 107° |
| 2026-04-26 04:41 | 33.28522 | -113.15118 | 19948 ft | 396 kts | 106° |
| 2026-04-26 04:41 | 33.28080 | -113.11896 | 19503 ft | 393 kts | 106° |
| 2026-04-26 04:42 | 33.27661 | -113.08676 | 19043 ft | 393 kts | 103° |
| 2026-04-26 04:42 | 33.27462 | -113.05447 | 18826 ft | 387 kts | 97° |
| 2026-04-26 04:42 | 33.27464 | -113.02258 | 18784 ft | 385 kts | 94° |
| 2026-04-26 04:42 | 33.27546 | -112.99032 | 18550 ft | 392 kts | 93° |
| 2026-04-26 04:43 | 33.27656 | -112.95796 | 18298 ft | 389 kts | 92° |
| 2026-04-26 04:43 | 33.27768 | -112.92586 | 18045 ft | 384 kts | 92° |
| 2026-04-26 04:43 | 33.27868 | -112.89409 | 17658 ft | 380 kts | 92° |
| 2026-04-26 04:43 | 33.27956 | -112.86278 | 17360 ft | 373 kts | 92° |
| 2026-04-26 04:44 | 33.28034 | -112.83230 | 17058 ft | 369 kts | 93° |
| 2026-04-26 04:44 | 33.28152 | -112.80190 | 17018 ft | 363 kts | 90° |
| 2026-04-26 04:44 | 33.28394 | -112.77195 | 17016 ft | 369 kts | 87° |
| 2026-04-26 04:44 | 33.28710 | -112.74130 | 17007 ft | 370 kts | 86° |
| 2026-04-26 04:45 | 33.29039 | -112.71091 | 16819 ft | 367 kts | 86° |
| 2026-04-26 04:45 | 33.29353 | -112.68111 | 16416 ft | 366 kts | 86° |
| 2026-04-26 04:45 | 33.29657 | -112.65083 | 15999 ft | 364 kts | 87° |
| 2026-04-26 04:45 | 33.29946 | -112.62073 | 15581 ft | 362 kts | 87° |
| 2026-04-26 04:46 | 33.30224 | -112.59131 | 15180 ft | 361 kts | 87° |
| 2026-04-26 04:46 | 33.30501 | -112.56149 | 14771 ft | 359 kts | 88° |
| 2026-04-26 04:46 | 33.30772 | -112.53197 | 14348 ft | 357 kts | 88° |
| 2026-04-26 04:46 | 33.31040 | -112.50286 | 13953 ft | 355 kts | 87° |
| 2026-04-26 04:47 | 33.31308 | -112.47357 | 13538 ft | 352 kts | 88° |
| 2026-04-26 04:47 | 33.31575 | -112.44449 | 13152 ft | 350 kts | 88° |
| 2026-04-26 04:47 | 33.31835 | -112.41600 | 12740 ft | 348 kts | 87° |
| 2026-04-26 04:47 | 33.32097 | -112.38731 | 12344 ft | 345 kts | 87° |
| 2026-04-26 04:48 | 33.32610 | -112.33105 | 11553 ft | 335 kts | 88° |
| 2026-04-26 04:48 | 33.32859 | -112.30399 | 11176 ft | 327 kts | 88° |
| 2026-04-26 04:48 | 33.33104 | -112.27731 | 10799 ft | 319 kts | 88° |
| 2026-04-26 04:49 | 33.33343 | -112.25115 | 10419 ft | 312 kts | 88° |
| 2026-04-26 04:49 | 33.33572 | -112.22590 | 10067 ft | 304 kts | 88° |
| 2026-04-26 04:49 | 33.33796 | -112.20135 | 9926 ft | 289 kts | 88° |
| 2026-04-26 04:49 | 33.34009 | -112.17763 | 9610 ft | 287 kts | 88° |
| 2026-04-26 04:50 | 33.34220 | -112.15360 | 9303 ft | 288 kts | 88° |
| 2026-04-26 04:50 | 33.34427 | -112.13058 | 9195 ft | 273 kts | 88° |
| 2026-04-26 04:50 | 33.34626 | -112.10879 | 9120 ft | 258 kts | 88° |
| 2026-04-26 04:50 | 33.34759 | -112.08792 | 9016 ft | 244 kts | 93° |
| 2026-04-26 04:51 | 33.34758 | -112.06761 | 8737 ft | 250 kts | 96° |
| 2026-04-26 04:51 | 33.34716 | -112.04662 | 8402 ft | 251 kts | 96° |
| 2026-04-26 04:51 | 33.34678 | -112.02594 | 8131 ft | 247 kts | 95° |
| 2026-04-26 04:51 | 33.34651 | -112.00577 | 7878 ft | 242 kts | 95° |
| 2026-04-26 04:52 | 33.34626 | -111.98565 | 7634 ft | 246 kts | 95° |
| 2026-04-26 04:52 | 33.34597 | -111.96503 | 7379 ft | 247 kts | 95° |
| 2026-04-26 04:52 | 33.34571 | -111.94502 | 7131 ft | 242 kts | 94° |
| 2026-04-26 04:52 | 33.34553 | -111.92506 | 7047 ft | 240 kts | 93° |
| 2026-04-26 04:53 | 33.34585 | -111.90463 | 7036 ft | 245 kts | 92° |
| 2026-04-26 04:53 | 33.34730 | -111.88460 | 6827 ft | 243 kts | 78° |
| 2026-04-26 04:53 | 33.35515 | -111.86696 | 6398 ft | 248 kts | 49° |
| 2026-04-26 04:53 | 33.36801 | -111.85337 | 5975 ft | 247 kts | 39° |
| 2026-04-26 04:54 | 33.38142 | -111.84068 | 5661 ft | 240 kts | 39° |
| 2026-04-26 04:54 | 33.39579 | -111.83218 | 5509 ft | 224 kts | 7° |
| 2026-04-26 04:54 | 33.41003 | -111.83562 | 5360 ft | 201 kts | 323° |
| 2026-04-26 04:54 | 33.41964 | -111.84656 | 5211 ft | 182 kts | 308° |
| 2026-04-26 04:55 | 33.42785 | -111.85726 | 4941 ft | 172 kts | 305° |
| 2026-04-26 04:55 | 33.43493 | -111.86886 | 4472 ft | 173 kts | 294° |
| 2026-04-26 04:55 | 33.43942 | -111.88226 | 3900 ft | 177 kts | 282° |
| 2026-04-26 04:55 | 33.44118 | -111.89668 | 3274 ft | 180 kts | 266° |
| 2026-04-26 04:56 | 33.44082 | -111.91180 | 2673 ft | 183 kts | 263° |
| 2026-04-26 04:56 | 33.44080 | -111.92703 | 2117 ft | 183 kts | 267° |
| 2026-04-26 04:56 | 33.44061 | -111.94151 | 1862 ft | 168 kts | 272° |
| 2026-04-26 04:56 | 33.44068 | -111.95464 | 1681 ft | 151 kts | 269° |
| 2026-04-26 04:57 | 33.44071 | -111.96693 | 1452 ft | 147 kts | 270° |
| 2026-04-26 04:57 | 33.44080 | -111.97884 | 1342 ft | 145 kts | 269° |
| 2026-04-26 04:57 | 33.44081 | -111.99091 | 1165 ft | 145 kts | 269° |
| 2026-04-26 04:57 | 33.44082 | -112.00161 | 1137 ft | 99 kts | 271° |
| 2026-04-26 04:58 | 33.44080 | -112.00760 | 1134 ft | 60 kts | 269° |
| 2026-04-26 04:58 | 33.43996 | -112.01097 | 1131 ft | 33 kts | 208° |
| 2026-04-26 04:58 | 33.43899 | -112.01014 | 1130 ft | 21 kts | 105° |
| 2026-04-26 04:58 | 33.43901 | -112.00833 | 1132 ft | 22 kts | 90° |
| 2026-04-26 04:59 | 33.43901 | -112.00647 | 1134 ft | 22 kts | 88° |
| 2026-04-26 04:59 | 33.43906 | -112.00447 | 1133 ft | 25 kts | 90° |
| 2026-04-26 04:59 | 33.43904 | -112.00222 | 1134 ft | 26 kts | 89° |
| 2026-04-26 04:59 | 33.43905 | -112.00006 | 1135 ft | 25 kts | 90° |
| 2026-04-26 05:00 | 33.43880 | -111.99824 | 1137 ft | 19 kts | 123° |
| 2026-04-26 05:00 | 33.43836 | -111.99758 | 1137 ft | 3 kts | 131° |
| 2026-04-26 05:00 | 33.43827 | -111.99746 | 1136 ft | 0 kts | 131° |
| 2026-04-26 05:00 | 33.43824 | -111.99743 | 1136 ft | 0 kts | 131° |
| 2026-04-26 05:01 | 33.43824 | -111.99742 | 1137 ft | 0 kts | 131° |